Time;durP1;ratioP1;P1;durP2;ratioP2;P2;SDS_P1;SDS_P2;PMS_P1;PMS_P2;Temp;Humidity;BMP_temperature;BMP_pressure;BME280_temperature;BME280_humidity;BME280_pressure;Samples;Min_cycle;Max_cycle;Signal;HPM_P1;HPM_P2
2023/06/29 00:01:11;;;;;;;5.73;4.90;;;16.10;96.20;;;;;;5051911;28;20487;-67
2023/06/29 00:03:41;;;;;;;7.00;5.60;;;16.10;97.80;;;;;;5050384;28;20468;-68
2023/06/29 00:06:10;;;;;;;6.10;5.20;;;16.10;98.00;;;;;;5052158;28;20860;-67
2023/06/29 00:08:38;;;;;;;5.60;5.00;;;16.00;98.20;;;;;;5052307;28;20841;-67
2023/06/29 00:11:07;;;;;;;6.47;5.30;;;15.90;97.30;;;;;;5051642;28;20448;-69
2023/06/29 00:13:35;;;;;;;8.37;5.90;;;15.80;97.60;;;;;;5050321;28;20844;-68
2023/06/29 00:16:11;;;;;;;6.07;5.40;;;15.70;97.70;;;;;;5051616;28;20444;-67
2023/06/29 00:18:39;;;;;;;5.97;5.40;;;15.70;97.80;;;;;;5051649;28;20436;-67
2023/06/29 00:21:07;;;;;;;6.17;5.60;;;15.80;98.90;;;;;;5051462;28;20487;-68
2023/06/29 00:23:35;;;;;;;7.40;6.00;;;15.80;98.30;;;;;;5050199;28;20514;-68
2023/06/29 00:26:03;;;;;;;5.73;5.17;;;15.80;97.60;;;;;;5051013;28;20576;-67
2023/06/29 00:28:31;;;;;;;5.77;5.20;;;15.80;98.00;;;;;;5051244;28;20467;-68
2023/06/29 00:31:00;;;;;;;6.00;5.37;;;15.60;97.90;;;;;;5050802;28;20450;-68
2023/06/29 00:33:29;;;;;;;7.07;5.40;;;15.50;97.70;;;;;;5049320;28;20501;-68
2023/06/29 00:35:57;;;;;;;8.30;5.27;;;15.50;98.40;;;;;;5051086;28;20491;-68
2023/06/29 00:38:26;;;;;;;6.60;5.63;;;15.50;98.80;;;;;;5050978;28;20454;-67
2023/06/29 00:40:55;;;;;;;6.07;5.50;;;15.50;98.60;;;;;;5050984;28;20531;-67
2023/06/29 00:43:26;;;;;;;6.50;5.47;;;15.50;99.10;;;;;;5049482;28;20466;-68
2023/06/29 00:45:54;;;;;;;8.07;5.47;;;15.50;99.90;;;;;;5051087;28;20475;-68
2023/06/29 00:48:22;;;;;;;6.80;5.93;;;15.50;99.90;;;;;;5051155;28;20483;-68
2023/06/29 00:50:51;;;;;;;6.07;5.47;;;15.40;99.90;;;;;;5051012;28;20495;-67
2023/06/29 00:53:19;;;;;;;6.10;5.47;;;15.30;99.90;;;;;;5049327;28;20476;-68
2023/06/29 00:55:47;;;;;;;6.33;5.73;;;15.20;99.90;;;;;;5050874;28;20444;-68
2023/06/29 00:58:18;;;;;;;7.37;5.60;;;15.20;99.90;;;;;;5050607;28;20475;-68
2023/06/29 01:00:46;;;;;;;6.30;5.80;;;15.20;99.80;;;;;;5050744;28;20443;-68
2023/06/29 01:03:15;;;;;;;6.13;5.60;;;15.10;99.90;;;;;;5049475;28;20452;-67
2023/06/29 01:05:45;;;;;;;5.90;5.40;;;15.10;99.90;;;;;;5050230;28;20526;-67
2023/06/29 01:08:21;;;;;;;5.93;5.17;;;15.10;99.90;;;;;;5050674;28;20478;-67
2023/06/29 01:10:50;;;;;;;5.80;5.30;;;15.00;99.90;;;;;;5050579;28;20445;-67
2023/06/29 01:13:19;;;;;;;5.93;5.30;;;14.90;99.90;;;;;;5049312;28;20461;-68
2023/06/29 01:15:48;;;;;;;6.97;6.37;;;14.90;99.90;;;;;;5050392;28;20499;-67
2023/06/29 01:18:18;;;;;;;6.30;5.70;;;14.90;99.90;;;;;;5050066;28;20535;-67
2023/06/29 01:20:49;;;;;;;8.10;6.10;;;14.80;99.90;;;;;;5050664;28;20442;-67
2023/06/29 01:23:24;;;;;;;6.67;6.17;;;14.80;99.90;;;;;;5049052;28;20492;-68
2023/06/29 01:25:54;;;;;;;6.40;5.80;;;14.90;99.90;;;;;;5050445;28;20435;-68
2023/06/29 01:28:23;;;;;;;6.07;5.57;;;14.80;99.90;;;;;;5049983;28;20493;-67
2023/06/29 01:30:51;;;;;;;6.50;5.90;;;14.80;99.90;;;;;;5050123;28;20440;-68
2023/06/29 01:33:20;;;;;;;7.17;5.63;;;14.70;99.90;;;;;;5048942;28;20460;-67
2023/06/29 01:35:52;;;;;;;7.10;6.53;;;14.60;99.90;;;;;;5050289;28;20437;-67
2023/06/29 01:38:25;;;;;;;6.07;5.57;;;14.60;99.90;;;;;;5050017;28;21035;-67
2023/06/29 01:40:58;;;;;;;7.57;5.83;;;14.60;99.90;;;;;;5049790;28;20443;-68
2023/06/29 01:43:28;;;;;;;6.43;5.83;;;14.70;99.90;;;;;;5048199;28;20498;-67
2023/06/29 01:45:57;;;;;;;6.33;5.73;;;14.70;99.90;;;;;;5049906;28;20447;-67
2023/06/29 01:48:26;;;;;;;6.37;5.67;;;14.70;99.90;;;;;;5050213;28;20895;-67
2023/06/29 01:50:54;;;;;;;10.53;7.00;;;14.60;99.90;;;;;;5050024;28;20447;-67
2023/06/29 01:53:22;;;;;;;6.70;6.10;;;14.60;99.90;;;;;;5048740;28;20543;-67
2023/06/29 01:55:50;;;;;;;7.00;6.33;;;14.70;99.90;;;;;;5049649;28;20499;-67
2023/06/29 01:58:20;;;;;;;6.83;6.13;;;14.60;99.90;;;;;;5049786;28;20453;-67
2023/06/29 02:00:48;;;;;;;7.63;6.77;;;14.60;99.90;;;;;;5049629;28;20444;-67
2023/06/29 02:03:16;;;;;;;6.60;6.10;;;14.60;99.90;;;;;;5048065;28;20491;-67
2023/06/29 02:05:44;;;;;;;8.10;6.53;;;14.60;99.90;;;;;;5049785;28;20440;-67
2023/06/29 02:08:12;;;;;;;8.97;6.10;;;14.50;99.90;;;;;;5049182;28;20479;-67
2023/06/29 02:10:40;;;;;;;10.20;5.80;;;14.40;99.90;;;;;;5049801;28;20534;-67
2023/06/29 02:13:08;;;;;;;11.33;6.10;;;14.40;99.90;;;;;;5048167;28;20547;-67
2023/06/29 02:15:37;;;;;;;6.93;6.33;;;14.50;99.90;;;;;;5049565;28;20473;-67
2023/06/29 02:18:06;;;;;;;6.73;6.13;;;14.50;99.90;;;;;;5049343;28;20606;-67
2023/06/29 02:20:34;;;;;;;6.90;6.23;;;14.50;99.90;;;;;;5049564;28;20493;-67
2023/06/29 02:23:02;;;;;;;11.83;6.90;;;14.40;99.90;;;;;;5048544;28;20511;-68
2023/06/29 02:25:30;;;;;;;8.10;6.70;;;14.30;99.90;;;;;;5049491;28;20439;-68
2023/06/29 02:27:58;;;;;;;7.37;6.67;;;14.40;99.90;;;;;;5049499;28;20511;-69
2023/06/29 02:30:26;;;;;;;6.87;6.37;;;14.30;99.90;;;;;;5049077;28;20450;-69
2023/06/29 02:32:55;;;;;;;8.40;7.23;;;14.30;99.90;;;;;;5048140;28;20472;-69
2023/06/29 02:35:23;;;;;;;6.40;5.83;;;14.20;99.90;;;;;;5049112;28;20455;-69
2023/06/29 02:37:51;;;;;;;6.53;6.03;;;14.10;99.90;;;;;;5049693;28;20443;-68
2023/06/29 02:40:19;;;;;;;7.20;5.80;;;14.00;99.90;;;;;;5049380;28;20440;-67
2023/06/29 02:42:48;;;;;;;7.30;6.07;;;14.20;99.90;;;;;;5044023;28;20481;-66
2023/06/29 02:45:16;;;;;;;6.60;6.00;;;14.10;99.90;;;;;;5029506;28;20948;-66
2023/06/29 02:47:44;;;;;;;7.30;6.67;;;14.00;99.90;;;;;;5029133;28;20483;-66
2023/06/29 02:50:13;;;;;;;6.70;6.03;;;13.90;99.90;;;;;;5029331;28;20447;-67
2023/06/29 02:52:41;;;;;;;6.60;6.00;;;13.90;99.90;;;;;;5027768;28;20440;-67
2023/06/29 02:55:09;;;;;;;7.57;6.27;;;13.90;99.90;;;;;;5032407;28;20448;-66
2023/06/29 02:57:37;;;;;;;8.27;6.13;;;13.90;99.90;;;;;;5032920;28;20458;-67
2023/06/29 03:00:08;;;;;;;6.73;6.13;;;13.90;99.90;;;;;;5033129;28;20870;-68
2023/06/29 03:02:36;;;;;;;7.03;6.40;;;14.00;99.90;;;;;;5032153;28;20451;-67
2023/06/29 03:05:04;;;;;;;6.87;6.27;;;14.00;99.90;;;;;;5032832;28;20447;-67
2023/06/29 03:07:34;;;;;;;6.53;5.87;;;14.00;99.90;;;;;;5033252;28;21047;-67
2023/06/29 03:10:03;;;;;;;6.40;5.80;;;14.00;99.90;;;;;;5032956;28;20509;-66
2023/06/29 03:12:31;;;;;;;6.13;5.60;;;14.00;99.90;;;;;;5032192;28;20447;-68
2023/06/29 03:14:59;;;;;;;6.53;5.90;;;14.10;99.90;;;;;;5032643;28;20470;-67
2023/06/29 03:17:27;;;;;;;6.10;5.50;;;13.90;99.90;;;;;;5033058;28;20430;-68
2023/06/29 03:19:55;;;;;;;6.10;5.60;;;13.80;99.90;;;;;;5033233;28;20448;-68
2023/06/29 03:22:25;;;;;;;7.97;6.57;;;13.80;99.90;;;;;;5032153;28;20480;-67
2023/06/29 03:24:54;;;;;;;6.30;5.80;;;13.80;99.90;;;;;;5032898;28;20512;-67
2023/06/29 03:27:22;;;;;;;7.23;6.63;;;13.70;99.90;;;;;;5032536;28;20935;-67
2023/06/29 03:29:52;;;;;;;8.30;6.90;;;13.70;99.90;;;;;;5033211;28;20452;-68
2023/06/29 03:32:20;;;;;;;7.87;7.27;;;13.60;99.90;;;;;;5032435;28;20551;-67
2023/06/29 03:34:48;;;;;;;7.37;6.67;;;13.50;99.90;;;;;;5032979;28;20454;-67
2023/06/29 03:37:16;;;;;;;7.43;5.90;;;13.60;99.90;;;;;;5033133;28;20472;-67
2023/06/29 03:39:44;;;;;;;8.80;7.10;;;13.60;99.90;;;;;;5033630;28;20473;-67
2023/06/29 03:42:14;;;;;;;6.63;6.07;;;13.60;99.90;;;;;;5033436;28;20479;-68
2023/06/29 03:44:42;;;;;;;8.50;6.27;;;13.60;99.90;;;;;;5032393;28;20467;-68
2023/06/29 03:47:10;;;;;;;7.27;6.57;;;13.60;99.90;;;;;;5033872;28;20548;-67
2023/06/29 03:49:38;;;;;;;6.93;6.23;;;13.70;99.90;;;;;;5032759;28;20489;-67
2023/06/29 03:52:07;;;;;;;7.50;6.00;;;13.70;99.90;;;;;;5032329;28;20534;-68
2023/06/29 03:54:35;;;;;;;6.80;6.20;;;13.80;99.90;;;;;;5030871;28;20526;-68
2023/06/29 03:57:04;;;;;;;7.30;6.60;;;13.80;99.90;;;;;;5033034;28;20546;-67
2023/06/29 03:59:33;;;;;;;6.77;6.27;;;13.80;99.90;;;;;;5032898;28;20444;-68
2023/06/29 04:02:01;;;;;;;10.80;6.87;;;13.70;99.90;;;;;;5032722;28;20433;-67
2023/06/29 04:04:29;;;;;;;6.73;6.13;;;13.70;99.90;;;;;;5031514;28;20475;-67
2023/06/29 04:06:57;;;;;;;7.73;6.40;;;13.80;99.90;;;;;;5031262;28;20444;-67
2023/06/29 04:09:25;;;;;;;6.90;6.20;;;13.80;99.90;;;;;;5032403;28;21004;-68
2023/06/29 04:11:53;;;;;;;6.13;5.73;;;13.90;99.90;;;;;;5032508;28;20455;-68
2023/06/29 04:14:21;;;;;;;6.87;6.27;;;14.00;99.90;;;;;;5031291;28;20461;-66
2023/06/29 04:16:51;;;;;;;6.70;6.00;;;14.20;99.90;;;;;;5031883;28;20532;-69
2023/06/29 04:19:19;;;;;;;8.77;5.93;;;14.20;99.90;;;;;;5032017;28;20483;-67
2023/06/29 04:21:47;;;;;;;7.10;6.40;;;14.30;99.90;;;;;;5031682;28;21077;-68
2023/06/29 04:24:15;;;;;;;5.80;5.30;;;14.40;99.90;;;;;;5030149;28;20519;-68
2023/06/29 04:26:43;;;;;;;6.57;6.07;;;14.50;99.90;;;;;;5031738;28;20504;-68
2023/06/29 04:29:11;;;;;;;7.57;6.80;;;14.50;99.90;;;;;;5031190;28;20478;-68
2023/06/29 04:31:39;;;;;;;7.43;6.77;;;14.50;99.90;;;;;;5031438;28;20986;-70
2023/06/29 04:34:08;;;;;;;7.93;6.77;;;14.60;99.90;;;;;;5047332;28;20740;-68
2023/06/29 04:36:36;;;;;;;9.40;7.37;;;14.80;99.90;;;;;;5054822;28;20455;-68
2023/06/29 04:39:04;;;;;;;7.57;6.87;;;15.00;99.90;;;;;;5031218;28;20438;-68
2023/06/29 04:41:32;;;;;;;7.40;6.80;;;14.90;99.90;;;;;;5034816;28;21000;-68
2023/06/29 04:44:01;;;;;;;8.90;6.40;;;15.00;99.90;;;;;;5042272;28;20464;-68
2023/06/29 04:46:30;;;;;;;7.63;6.87;;;15.00;99.90;;;;;;5042394;28;20446;-69
2023/06/29 04:49:06;;;;;;;8.17;7.30;;;15.10;99.90;;;;;;5035366;28;20484;-67
2023/06/29 04:51:36;;;;;;;7.97;7.30;;;15.10;99.90;;;;;;5040509;28;20453;-67
2023/06/29 04:54:05;;;;;;;7.73;6.20;;;15.20;99.90;;;;;;5029264;28;20504;-65
2023/06/29 04:56:33;;;;;;;6.53;6.00;;;15.30;99.90;;;;;;5042467;28;20476;-68
2023/06/29 04:59:01;;;;;;;7.83;6.67;;;15.40;99.90;;;;;;5033278;28;20471;-69
2023/06/29 05:01:29;;;;;;;7.00;6.50;;;15.50;99.90;;;;;;5031024;28;20444;-68
2023/06/29 05:03:57;;;;;;;9.10;8.37;;;15.60;99.90;;;;;;5029688;28;20525;-69
2023/06/29 05:06:29;;;;;;;7.23;6.57;;;15.70;99.90;;;;;;5031004;28;20475;-68
2023/06/29 05:08:58;;;;;;;6.50;5.90;;;15.80;99.90;;;;;;5030632;28;20589;-67
2023/06/29 05:11:26;;;;;;;7.43;6.43;;;15.90;99.90;;;;;;5030190;28;20502;-67
2023/06/29 05:13:55;;;;;;;7.93;7.13;;;15.90;99.90;;;;;;5029207;28;20471;-69
2023/06/29 05:16:23;;;;;;;7.17;5.93;;;16.10;99.90;;;;;;5030540;28;20447;-68
2023/06/29 05:18:51;;;;;;;7.77;6.87;;;16.20;99.90;;;;;;5030542;28;20443;-66
2023/06/29 05:21:19;;;;;;;6.70;6.20;;;16.20;99.90;;;;;;5030256;28;20547;-66
2023/06/29 05:23:47;;;;;;;8.90;6.37;;;16.20;99.90;;;;;;5029443;28;20521;-66
2023/06/29 05:26:16;;;;;;;7.47;6.60;;;16.30;99.90;;;;;;5029928;28;20448;-66
2023/06/29 05:28:44;;;;;;;7.30;6.60;;;16.40;99.90;;;;;;5030686;28;20928;-67
2023/06/29 05:31:30;;;;;;;7.23;6.57;;;16.50;99.90;;;;;;5030601;28;20609;-68
2023/06/29 05:33:59;;;;;;;7.70;7.00;;;16.60;99.90;;;;;;5028828;28;20469;-67
2023/06/29 05:36:27;;;;;;;6.80;6.10;;;16.80;99.90;;;;;;5030845;28;20502;-66
2023/06/29 05:38:55;;;;;;;7.23;6.53;;;16.90;99.90;;;;;;5030608;28;20541;-66
2023/06/29 05:41:25;;;;;;;6.80;6.20;;;17.00;99.30;;;;;;5030336;28;20449;-66
2023/06/29 05:43:52;;;;;;;8.00;7.30;;;17.10;99.40;;;;;;5028714;28;20476;-66
2023/06/29 05:46:21;;;;;;;8.83;7.00;;;17.20;98.80;;;;;;5030164;28;20457;-66
2023/06/29 05:48:49;;;;;;;6.50;5.90;;;17.20;98.70;;;;;;5029732;28;20484;-66
2023/06/29 05:51:17;;;;;;;7.73;7.07;;;17.40;98.90;;;;;;5030004;28;20463;-66
2023/06/29 05:53:45;;;;;;;7.73;6.50;;;17.50;98.60;;;;;;5028287;28;20512;-67
2023/06/29 05:56:13;;;;;;;6.47;5.80;;;17.60;98.00;;;;;;5030056;28;20445;-68
2023/06/29 05:58:44;;;;;;;7.17;6.40;;;17.60;97.70;;;;;;5029821;28;20862;-67
2023/06/29 06:01:12;;;;;;;6.03;5.50;;;17.80;96.00;;;;;;5028699;28;20445;-66
2023/06/29 06:03:43;;;;;;;7.33;6.57;;;17.90;96.10;;;;;;5028384;28;20983;-68
2023/06/29 06:06:11;;;;;;;6.47;5.77;;;18.00;94.90;;;;;;5029596;28;20445;-68
2023/06/29 06:08:39;;;;;;;6.57;5.47;;;18.00;94.60;;;;;;5029746;28;20854;-68
2023/06/29 06:11:07;;;;;;;6.33;5.70;;;18.10;95.90;;;;;;5029392;28;20915;-68
2023/06/29 06:13:36;;;;;;;7.27;6.17;;;18.20;94.50;;;;;;5028375;28;20504;-69
2023/06/29 06:16:06;;;;;;;7.40;4.93;;;18.40;94.50;;;;;;5029286;28;20452;-68
2023/06/29 06:18:34;;;;;;;6.90;5.77;;;18.40;93.70;;;;;;5029728;28;20449;-68
2023/06/29 06:21:03;;;;;;;6.83;5.60;;;18.60;94.30;;;;;;5029423;28;20449;-69
2023/06/29 06:23:31;;;;;;;6.30;5.70;;;18.70;93.10;;;;;;5028334;28;20468;-68
2023/06/29 06:26:02;;;;;;;5.03;4.63;;;18.80;93.70;;;;;;5029500;28;20445;-68
2023/06/29 06:28:30;;;;;;;5.37;4.97;;;18.80;92.40;;;;;;5029644;28;20524;-70
2023/06/29 06:30:58;;;;;;;5.83;5.30;;;18.90;91.40;;;;;;5033752;28;20850;-69
2023/06/29 06:33:30;;;;;;;5.23;4.77;;;19.10;91.50;;;;;;5031999;28;20479;-68
2023/06/29 06:35:58;;;;;;;6.00;4.50;;;19.20;91.60;;;;;;5033648;28;20445;-68
2023/06/29 06:38:27;;;;;;;5.30;4.80;;;19.40;91.30;;;;;;5033144;28;20451;-69
2023/06/29 06:41:15;;;;;;;7.93;5.23;;;19.50;89.60;;;;;;5033304;28;20524;-70
2023/06/29 06:43:43;;;;;;;5.40;4.60;;;19.80;88.50;;;;;;5031986;28;20472;-71
2023/06/29 06:46:11;;;;;;;6.10;5.50;;;19.90;89.80;;;;;;5033433;28;20435;-69
2023/06/29 06:48:41;;;;;;;6.93;5.23;;;20.00;85.30;;;;;;5033418;28;20441;-70
2023/06/29 06:51:10;;;;;;;4.80;4.00;;;20.20;86.70;;;;;;5033204;28;20488;-67
2023/06/29 06:53:38;;;;;;;5.37;4.33;;;20.30;84.50;;;;;;5031593;28;20515;-70
2023/06/29 06:56:06;;;;;;;6.77;5.00;;;20.40;83.50;;;;;;5032813;28;20522;-70
2023/06/29 06:58:35;;;;;;;4.50;3.80;;;20.50;81.60;;;;;;5033185;28;20455;-70
2023/06/29 07:01:03;;;;;;;4.50;4.10;;;20.50;80.30;;;;;;5032747;28;20440;-71
2023/06/29 07:03:31;;;;;;;5.13;4.37;;;20.70;79.20;;;;;;5031201;28;20467;-70
2023/06/29 07:06:00;;;;;;;4.20;3.90;;;20.70;78.30;;;;;;5032563;28;21040;-71
2023/06/29 07:08:29;;;;;;;4.37;3.90;;;20.80;78.50;;;;;;5032654;28;20510;-71
2023/06/29 07:10:58;;;;;;;3.97;3.57;;;21.00;77.20;;;;;;5032334;28;20542;-70
2023/06/29 07:13:26;;;;;;;4.03;3.63;;;21.10;75.80;;;;;;5031746;28;20461;-70
2023/06/29 07:15:55;;;;;;;7.23;4.40;;;21.30;74.80;;;;;;5032179;28;20448;-70
2023/06/29 07:18:23;;;;;;;6.33;4.13;;;21.60;73.40;;;;;;5032758;28;20514;-72
2023/06/29 07:20:51;;;;;;;4.47;4.07;;;22.00;72.60;;;;;;5032361;28;20978;-72
2023/06/29 07:23:23;;;;;;;4.27;3.87;;;22.50;74.40;;;;;;5031111;28;20484;-70
2023/06/29 07:25:54;;;;;;;4.63;4.23;;;23.00;69.30;;;;;;4971401;28;20439;-70
2023/06/29 07:28:23;;;;;;;4.87;4.47;;;23.50;67.00;;;;;;4971347;28;20451;-71
2023/06/29 07:30:51;;;;;;;7.37;4.97;;;23.90;64.20;;;;;;4971200;28;20526;-68
2023/06/29 07:33:19;;;;;;;6.07;5.20;;;24.20;61.90;;;;;;4969708;28;20468;-69
2023/06/29 07:35:47;;;;;;;6.80;4.60;;;24.40;60.20;;;;;;4971107;28;20456;-68
2023/06/29 07:38:16;;;;;;;7.87;4.50;;;24.70;59.90;;;;;;4970778;28;20478;-67
2023/06/29 07:40:45;;;;;;;5.67;4.30;;;24.80;62.10;;;;;;4969816;28;20535;-67
2023/06/29 07:43:16;;;;;;;5.37;4.10;;;25.10;61.20;;;;;;4978707;28;20473;-69
2023/06/29 07:45:44;;;;;;;5.60;4.60;;;25.30;65.20;;;;;;5032494;28;20445;-69
2023/06/29 07:48:13;;;;;;;5.23;4.80;;;25.50;59.00;;;;;;5032374;28;20544;-69
2023/06/29 07:50:41;;;;;;;4.60;3.90;;;25.60;59.00;;;;;;5032510;28;20480;-67
2023/06/29 07:53:09;;;;;;;6.77;5.00;;;25.40;57.00;;;;;;5030993;28;21001;-69
2023/06/29 07:55:37;;;;;;;7.60;4.70;;;25.20;56.60;;;;;;5033865;28;20449;-69
2023/06/29 07:58:06;;;;;;;5.70;4.97;;;25.00;61.40;;;;;;5033849;28;20441;-68
2023/06/29 08:00:37;;;;;;;6.07;4.77;;;25.00;57.80;;;;;;5033238;28;20530;-69
2023/06/29 08:03:06;;;;;;;5.33;4.63;;;25.00;58.00;;;;;;5030646;28;20500;-70
2023/06/29 08:05:34;;;;;;;5.80;5.20;;;25.30;58.70;;;;;;5031889;28;20453;-68
2023/06/29 08:08:05;;;;;;;6.40;4.83;;;25.70;58.00;;;;;;5009057;28;20887;-68
2023/06/29 08:10:33;;;;;;;5.37;4.40;;;25.80;56.10;;;;;;5009338;28;20478;-68
2023/06/29 08:13:02;;;;;;;4.67;4.33;;;26.00;56.90;;;;;;5007861;28;20531;-69
2023/06/29 08:15:34;;;;;;;6.53;4.10;;;26.20;53.30;;;;;;5009120;28;20445;-69
2023/06/29 08:18:02;;;;;;;4.87;4.47;;;26.30;54.40;;;;;;5008851;28;20445;-69
2023/06/29 08:20:30;;;;;;;4.57;4.07;;;26.30;54.50;;;;;;5008901;28;20438;-69
2023/06/29 08:22:58;;;;;;;4.83;3.80;;;26.40;51.80;;;;;;5007591;28;20564;-68
2023/06/29 08:25:27;;;;;;;4.70;4.23;;;26.30;53.50;;;;;;5011881;28;20577;-69
2023/06/29 08:27:55;;;;;;;6.33;4.00;;;26.50;54.30;;;;;;5031425;28;20445;-69
2023/06/29 08:30:23;;;;;;;4.40;4.00;;;26.80;55.80;;;;;;5031370;28;21045;-69
2023/06/29 08:32:53;;;;;;;4.20;3.40;;;27.40;51.80;;;;;;5030010;28;20483;-68
2023/06/29 08:35:21;;;;;;;3.93;3.53;;;27.70;50.20;;;;;;5031429;28;20445;-68
2023/06/29 08:37:49;;;;;;;5.83;3.47;;;27.80;47.10;;;;;;5030898;28;20468;-68
2023/06/29 08:40:21;;;;;;;4.63;3.00;;;27.80;46.00;;;;;;5031243;28;20445;-69
2023/06/29 08:42:49;;;;;;;4.23;3.07;;;27.80;47.10;;;;;;5029915;28;20460;-69
2023/06/29 08:45:18;;;;;;;5.40;3.50;;;27.90;47.00;;;;;;5031196;28;20478;-69
2023/06/29 08:47:53;;;;;;;3.33;2.77;;;27.90;47.10;;;;;;5030889;28;20451;-69
2023/06/29 08:50:26;;;;;;;3.23;2.80;;;27.90;48.70;;;;;;5030859;28;20479;-69
2023/06/29 08:52:55;;;;;;;4.93;3.30;;;28.00;46.20;;;;;;5029252;28;20468;-69
2023/06/29 08:55:24;;;;;;;6.47;3.30;;;28.00;45.50;;;;;;5030614;28;20536;-69
2023/06/29 08:57:54;;;;;;;4.23;3.43;;;28.00;45.60;;;;;;5031295;28;20445;-69
2023/06/29 09:00:23;;;;;;;6.27;3.10;;;27.90;46.70;;;;;;5030690;28;20475;-69
2023/06/29 09:02:55;;;;;;;5.40;3.23;;;28.00;48.00;;;;;;5029578;28;20453;-70
2023/06/29 09:05:23;;;;;;;4.10;2.70;;;28.20;46.10;;;;;;5030773;28;20540;-68
2023/06/29 09:07:51;;;;;;;4.10;3.80;;;28.40;47.80;;;;;;5030869;28;20912;-69
2023/06/29 09:10:20;;;;;;;4.20;3.80;;;28.60;45.50;;;;;;5030515;28;20477;-68
2023/06/29 09:12:48;;;;;;;4.73;3.43;;;29.00;44.40;;;;;;5029569;28;20465;-68
2023/06/29 09:15:17;;;;;;;3.87;2.97;;;29.00;45.20;;;;;;5030664;28;20448;-68
2023/06/29 09:17:46;;;;;;;3.70;3.27;;;29.20;44.30;;;;;;5030850;28;20514;-68
2023/06/29 09:20:21;;;;;;;4.43;3.63;;;29.10;44.10;;;;;;5030521;28;20480;-68
2023/06/29 09:22:51;;;;;;;5.20;3.33;;;29.30;44.10;;;;;;5029233;28;20465;-68
2023/06/29 09:25:21;;;;;;;4.37;3.20;;;29.40;42.20;;;;;;5030644;28;20432;-68
2023/06/29 09:28:03;;;;;;;4.10;3.20;;;29.60;41.00;;;;;;5030579;28;20499;-69
2023/06/29 09:30:36;;;;;;;3.27;2.87;;;29.80;40.00;;;;;;5030547;28;20441;-68
2023/06/29 09:33:11;;;;;;;6.90;2.63;;;29.90;40.80;;;;;;5029606;28;20461;-67
2023/06/29 09:35:41;;;;;;;3.50;3.20;;;29.90;38.50;;;;;;5030361;28;20444;-68
2023/06/29 09:38:09;;;;;;;4.90;3.70;;;29.60;38.70;;;;;;5030227;28;20450;-69
2023/06/29 09:40:48;;;;;;;3.27;2.80;;;29.40;40.20;;;;;;5030639;28;20520;-68
2023/06/29 09:43:17;;;;;;;8.70;2.97;;;29.70;40.40;;;;;;5029278;28;20476;-67
2023/06/29 09:45:45;;;;;;;4.93;3.10;;;29.80;40.00;;;;;;5030328;28;20441;-68
2023/06/29 09:48:14;;;;;;;4.50;2.47;;;29.30;39.40;;;;;;5030137;28;20801;-68
2023/06/29 09:50:52;;;;;;;4.27;2.70;;;29.50;40.10;;;;;;5030026;28;20523;-68
2023/06/29 09:53:29;;;;;;;3.30;3.10;;;30.00;41.90;;;;;;5028767;28;20475;-68
2023/06/29 09:55:59;;;;;;;3.53;2.77;;;30.70;40.40;;;;;;5030033;28;20927;-68
2023/06/29 09:58:28;;;;;;;3.27;2.73;;;31.50;38.50;;;;;;5029727;28;20959;-68
2023/06/29 10:00:58;;;;;;;3.00;2.70;;;32.00;37.90;;;;;;5029728;28;20472;-68
2023/06/29 10:03:27;;;;;;;2.80;2.60;;;32.40;37.40;;;;;;5027784;28;20464;-68
2023/06/29 10:06:00;;;;;;;2.93;2.50;;;32.90;36.40;;;;;;5029750;28;20445;-68
2023/06/29 10:08:32;;;;;;;6.50;2.90;;;33.20;34.90;;;;;;5030005;28;20922;-68
2023/06/29 10:11:03;;;;;;;4.60;2.80;;;33.50;34.70;;;;;;5029547;28;21123;-68
2023/06/29 10:13:37;;;;;;;2.80;2.50;;;33.60;34.50;;;;;;5028305;28;20884;-69
2023/06/29 10:16:10;;;;;;;3.20;2.83;;;34.00;32.80;;;;;;5029891;28;20445;-68
2023/06/29 10:18:42;;;;;;;3.90;2.80;;;34.00;33.30;;;;;;5029577;28;20441;-69
2023/06/29 10:21:12;;;;;;;4.60;3.00;;;33.60;34.60;;;;;;5029781;28;20433;-68
2023/06/29 10:23:43;;;;;;;3.10;2.50;;;33.80;34.80;;;;;;5028511;28;20882;-69
2023/06/29 10:26:13;;;;;;;4.00;2.50;;;33.70;34.10;;;;;;5029537;28;20445;-68
2023/06/29 10:28:41;;;;;;;3.10;2.67;;;33.70;33.80;;;;;;5029991;28;20502;-68
2023/06/29 10:31:09;;;;;;;3.83;3.00;;;33.10;35.20;;;;;;5029485;28;20449;-68
2023/06/29 10:33:47;;;;;;;4.00;3.20;;;32.30;34.70;;;;;;5028137;28;20471;-68
2023/06/29 10:36:17;;;;;;;4.03;3.00;;;31.40;36.00;;;;;;5029714;28;20512;-68
2023/06/29 10:38:46;;;;;;;4.00;3.00;;;30.90;37.60;;;;;;5029558;28;20449;-68
2023/06/29 10:41:26;;;;;;;5.50;3.10;;;30.40;37.20;;;;;;5030149;28;20425;-68
2023/06/29 10:43:58;;;;;;;4.17;3.10;;;30.40;37.70;;;;;;5028652;28;20460;-69
2023/06/29 10:46:45;;;;;;;4.10;3.00;;;30.70;38.40;;;;;;5030109;28;20543;-68
2023/06/29 10:49:23;;;;;;;2.90;2.70;;;31.60;39.40;;;;;;5029818;28;20635;-69
2023/06/29 10:51:53;;;;;;;2.57;2.37;;;32.70;36.40;;;;;;5029662;28;21010;-68
2023/06/29 10:54:23;;;;;;;3.20;2.77;;;33.50;35.90;;;;;;5028449;28;20551;-68
2023/06/29 10:56:58;;;;;;;3.37;3.10;;;34.00;32.20;;;;;;5029996;28;20441;-69
2023/06/29 10:59:27;;;;;;;5.43;3.27;;;33.80;32.50;;;;;;5029372;28;20440;-68
2023/06/29 11:01:55;;;;;;;2.73;2.53;;;33.80;34.90;;;;;;5029411;28;20445;-67
2023/06/29 11:04:24;;;;;;;3.63;2.77;;;34.40;32.60;;;;;;5028545;28;20800;-68
2023/06/29 11:06:53;;;;;;;2.77;2.57;;;35.10;33.30;;;;;;5029645;28;20437;-68
2023/06/29 11:09:21;;;;;;;5.00;3.00;;;35.80;32.50;;;;;;5029227;28;20472;-68
2023/06/29 11:11:50;;;;;;;3.53;2.40;;;36.10;30.70;;;;;;5029069;28;20548;-68
2023/06/29 11:14:19;;;;;;;3.33;2.80;;;35.60;30.40;;;;;;5027995;28;20519;-68
2023/06/29 11:16:48;;;;;;;3.37;3.00;;;35.40;30.60;;;;;;5033124;28;20866;-68
2023/06/29 11:19:16;;;;;;;3.00;2.73;;;35.80;32.50;;;;;;5033086;28;20441;-68
2023/06/29 11:21:44;;;;;;;3.67;3.37;;;35.90;32.40;;;;;;5032853;28;20440;-68
2023/06/29 11:24:14;;;;;;;5.63;3.90;;;36.40;31.30;;;;;;5031565;28;20461;-68
2023/06/29 11:26:43;;;;;;;4.17;3.20;;;37.00;30.70;;;;;;5032741;28;21049;-68
2023/06/29 11:29:11;;;;;;;3.00;2.77;;;37.40;30.80;;;;;;5032360;28;21037;-68
2023/06/29 11:31:39;;;;;;;4.27;3.30;;;37.40;29.50;;;;;;5032612;28;20532;-68
2023/06/29 11:34:13;;;;;;;5.27;3.13;;;37.30;29.60;;;;;;5031227;28;20464;-68
2023/06/29 11:36:41;;;;;;;3.83;3.17;;;37.30;29.50;;;;;;5032609;28;20436;-67
2023/06/29 11:39:23;;;;;;;4.83;3.80;;;36.50;29.00;;;;;;5032574;28;20930;-67
2023/06/29 11:41:51;;;;;;;4.67;4.23;;;34.90;30.30;;;;;;5032513;28;20835;-68
2023/06/29 11:44:23;;;;;;;4.80;3.80;;;35.10;32.10;;;;;;5033543;28;21320;-67
2023/06/29 11:46:52;;;;;;;13.23;12.23;;;35.60;31.10;;;;;;5051313;28;20521;-67
2023/06/29 11:49:40;;;;;;;4.63;4.10;;;36.20;30.70;;;;;;5045659;28;20817;-68
2023/06/29 11:52:10;;;;;;;3.30;3.00;;;37.00;31.40;;;;;;5051599;28;20472;-69
2023/06/29 11:54:39;;;;;;;4.70;3.43;;;37.70;29.30;;;;;;5051196;28;20475;-68
2023/06/29 11:57:08;;;;;;;3.97;3.63;;;37.50;27.70;;;;;;5051972;28;20447;-68
2023/06/29 11:59:39;;;;;;;4.87;3.53;;;36.40;29.00;;;;;;5051998;28;20468;-67
2023/06/29 12:02:08;;;;;;;4.60;3.43;;;36.10;29.20;;;;;;5052019;28;20507;-68
2023/06/29 12:04:36;;;;;;;4.53;3.80;;;35.40;29.80;;;;;;5038632;28;20814;-68
2023/06/29 12:07:05;;;;;;;4.20;3.80;;;35.00;30.10;;;;;;5041330;28;20429;-69
2023/06/29 12:09:34;;;;;;;4.50;4.10;;;34.90;30.50;;;;;;5042895;28;20436;-68
2023/06/29 12:12:05;;;;;;;6.13;3.87;;;34.70;31.10;;;;;;5040946;28;20538;-69
2023/06/29 12:14:33;;;;;;;3.77;3.47;;;34.80;31.70;;;;;;5039503;28;20878;-70
2023/06/29 12:17:03;;;;;;;5.10;3.77;;;35.90;30.80;;;;;;5040973;28;20995;-70
2023/06/29 12:19:36;;;;;;;4.50;3.87;;;36.30;31.60;;;;;;5040621;28;20499;-66
2023/06/29 12:22:15;;;;;;;4.50;4.10;;;37.20;30.30;;;;;;5040555;28;20461;-68
2023/06/29 12:24:49;;;;;;;4.20;3.80;;;37.10;29.00;;;;;;5040955;28;20464;-68
2023/06/29 12:27:20;;;;;;;4.00;3.70;;;36.50;29.00;;;;;;5041657;28;20432;-68
2023/06/29 12:29:48;;;;;;;5.27;4.77;;;35.90;30.90;;;;;;5041796;28;20441;-68
2023/06/29 12:32:16;;;;;;;6.10;4.20;;;34.90;30.00;;;;;;5041480;28;20498;-68
2023/06/29 12:34:44;;;;;;;5.03;3.90;;;33.40;32.50;;;;;;5057521;28;20462;-69
2023/06/29 12:37:12;;;;;;;5.90;4.10;;;32.30;34.50;;;;;;5050400;28;20522;-69
2023/06/29 12:39:40;;;;;;;5.00;3.60;;;31.90;35.30;;;;;;5037223;28;20850;-67
2023/06/29 12:42:08;;;;;;;13.23;4.43;;;31.30;36.20;;;;;;5049628;28;20546;-69
2023/06/29 12:44:37;;;;;;;10.07;4.70;;;30.50;38.70;;;;;;5039364;28;20461;-69
2023/06/29 12:47:08;;;;;;;4.50;4.10;;;29.90;40.40;;;;;;5064136;28;20447;-69
2023/06/29 12:49:38;;;;;;;8.97;4.30;;;29.40;40.70;;;;;;5046306;28;20942;-70
2023/06/29 12:52:07;;;;;;;7.43;4.23;;;28.90;41.60;;;;;;5062481;28;20445;-69
2023/06/29 12:54:36;;;;;;;15.30;4.17;;;28.60;42.80;;;;;;5049425;28;20538;-68
2023/06/29 12:57:04;;;;;;;5.50;3.70;;;28.60;42.80;;;;;;5050839;28;20440;-69